sensor_id;sensor_type;location;lat;lon;timestamp;P1;durP1;ratioP1;P2;durP2;ratioP2
76210;SDS011;65003;49.518;11.280;2024-02-16T00:01:08;6.33;;;3.67;;
76210;SDS011;65003;49.518;11.280;2024-02-16T00:03:35;3.77;;;3.20;;
76210;SDS011;65003;49.518;11.280;2024-02-16T00:06:01;6.13;;;3.43;;
76210;SDS011;65003;49.518;11.280;2024-02-16T00:08:28;7.90;;;3.13;;
76210;SDS011;65003;49.518;11.280;2024-02-16T00:10:55;6.73;;;3.67;;
76210;SDS011;65003;49.518;11.280;2024-02-16T00:13:21;3.87;;;2.90;;
76210;SDS011;65003;49.518;11.280;2024-02-16T00:15:48;5.33;;;3.23;;
76210;SDS011;65003;49.518;11.280;2024-02-16T00:18:14;6.00;;;3.23;;
76210;SDS011;65003;49.518;11.280;2024-02-16T00:20:41;4.80;;;3.20;;
76210;SDS011;65003;49.518;11.280;2024-02-16T00:23:07;5.27;;;3.53;;
76210;SDS011;65003;49.518;11.280;2024-02-16T00:25:34;4.00;;;3.07;;
76210;SDS011;65003;49.518;11.280;2024-02-16T00:28:01;5.77;;;3.43;;
76210;SDS011;65003;49.518;11.280;2024-02-16T00:30:27;6.70;;;3.17;;
76210;SDS011;65003;49.518;11.280;2024-02-16T00:32:54;6.67;;;3.30;;
76210;SDS011;65003;49.518;11.280;2024-02-16T00:35:20;4.40;;;3.37;;
76210;SDS011;65003;49.518;11.280;2024-02-16T00:37:47;4.30;;;3.17;;
76210;SDS011;65003;49.518;11.280;2024-02-16T00:40:14;5.27;;;3.30;;
76210;SDS011;65003;49.518;11.280;2024-02-16T00:42:40;5.33;;;2.63;;
76210;SDS011;65003;49.518;11.280;2024-02-16T00:45:07;3.87;;;2.77;;
76210;SDS011;65003;49.518;11.280;2024-02-16T00:47:34;5.03;;;3.13;;
76210;SDS011;65003;49.518;11.280;2024-02-16T00:50:01;3.23;;;2.60;;
76210;SDS011;65003;49.518;11.280;2024-02-16T00:52:27;5.23;;;2.80;;
76210;SDS011;65003;49.518;11.280;2024-02-16T00:54:54;4.70;;;2.97;;
76210;SDS011;65003;49.518;11.280;2024-02-16T00:57:20;5.33;;;2.73;;
76210;SDS011;65003;49.518;11.280;2024-02-16T00:59:47;4.43;;;3.17;;
76210;SDS011;65003;49.518;11.280;2024-02-16T01:02:14;4.93;;;2.70;;
76210;SDS011;65003;49.518;11.280;2024-02-16T01:04:40;5.27;;;3.10;;
76210;SDS011;65003;49.518;11.280;2024-02-16T01:07:07;5.17;;;2.73;;
76210;SDS011;65003;49.518;11.280;2024-02-16T01:09:33;3.97;;;2.47;;
76210;SDS011;65003;49.518;11.280;2024-02-16T01:12:00;6.00;;;2.67;;
76210;SDS011;65003;49.518;11.280;2024-02-16T01:14:26;2.80;;;2.30;;
76210;SDS011;65003;49.518;11.280;2024-02-16T01:16:53;4.07;;;2.00;;
76210;SDS011;65003;49.518;11.280;2024-02-16T01:19:20;3.93;;;2.30;;
76210;SDS011;65003;49.518;11.280;2024-02-16T01:21:46;6.10;;;2.27;;
76210;SDS011;65003;49.518;11.280;2024-02-16T01:24:13;4.27;;;2.37;;
76210;SDS011;65003;49.518;11.280;2024-02-16T01:26:39;2.73;;;1.90;;
76210;SDS011;65003;49.518;11.280;2024-02-16T01:29:06;2.77;;;2.47;;
76210;SDS011;65003;49.518;11.280;2024-02-16T01:31:33;3.50;;;2.27;;
76210;SDS011;65003;49.518;11.280;2024-02-16T01:33:59;1.83;;;1.73;;
76210;SDS011;65003;49.518;11.280;2024-02-16T01:36:26;4.13;;;2.40;;
76210;SDS011;65003;49.518;11.280;2024-02-16T01:38:52;2.40;;;1.83;;
76210;SDS011;65003;49.518;11.280;2024-02-16T01:41:20;2.67;;;2.17;;
76210;SDS011;65003;49.518;11.280;2024-02-16T01:43:46;4.30;;;2.50;;
76210;SDS011;65003;49.518;11.280;2024-02-16T01:46:13;2.77;;;2.40;;
76210;SDS011;65003;49.518;11.280;2024-02-16T01:48:39;3.73;;;2.40;;
76210;SDS011;65003;49.518;11.280;2024-02-16T01:51:07;2.53;;;2.20;;
76210;SDS011;65003;49.518;11.280;2024-02-16T01:53:33;3.47;;;2.10;;
76210;SDS011;65003;49.518;11.280;2024-02-16T01:55:59;3.43;;;2.00;;
76210;SDS011;65003;49.518;11.280;2024-02-16T01:58:26;3.20;;;2.10;;
76210;SDS011;65003;49.518;11.280;2024-02-16T02:00:52;2.93;;;2.53;;
76210;SDS011;65003;49.518;11.280;2024-02-16T02:03:19;4.60;;;2.20;;
76210;SDS011;65003;49.518;11.280;2024-02-16T02:05:46;4.03;;;2.40;;
76210;SDS011;65003;49.518;11.280;2024-02-16T02:08:12;4.47;;;1.93;;
76210;SDS011;65003;49.518;11.280;2024-02-16T02:10:39;2.63;;;2.30;;
76210;SDS011;65003;49.518;11.280;2024-02-16T02:13:06;4.10;;;2.37;;
76210;SDS011;65003;49.518;11.280;2024-02-16T02:15:32;5.00;;;2.57;;
76210;SDS011;65003;49.518;11.280;2024-02-16T02:17:59;4.83;;;2.27;;
76210;SDS011;65003;49.518;11.280;2024-02-16T02:20:25;3.90;;;2.43;;
76210;SDS011;65003;49.518;11.280;2024-02-16T02:22:52;2.90;;;2.47;;
76210;SDS011;65003;49.518;11.280;2024-02-16T02:25:19;3.27;;;2.30;;
76210;SDS011;65003;49.518;11.280;2024-02-16T02:27:45;5.37;;;2.43;;
76210;SDS011;65003;49.518;11.280;2024-02-16T02:30:12;2.37;;;2.17;;
76210;SDS011;65003;49.518;11.280;2024-02-16T02:32:39;3.27;;;2.67;;
76210;SDS011;65003;49.518;11.280;2024-02-16T02:35:05;3.23;;;2.20;;
76210;SDS011;65003;49.518;11.280;2024-02-16T02:37:32;5.60;;;2.43;;
76210;SDS011;65003;49.518;11.280;2024-02-16T02:39:59;2.30;;;1.90;;
76210;SDS011;65003;49.518;11.280;2024-02-16T02:42:25;3.00;;;2.37;;
76210;SDS011;65003;49.518;11.280;2024-02-16T02:44:52;3.83;;;2.70;;
76210;SDS011;65003;49.518;11.280;2024-02-16T02:47:19;4.07;;;2.10;;
76210;SDS011;65003;49.518;11.280;2024-02-16T02:49:45;2.77;;;2.50;;
76210;SDS011;65003;49.518;11.280;2024-02-16T02:52:12;3.87;;;2.73;;
76210;SDS011;65003;49.518;11.280;2024-02-16T02:54:38;6.13;;;2.63;;
76210;SDS011;65003;49.518;11.280;2024-02-16T02:57:05;4.20;;;3.00;;
76210;SDS011;65003;49.518;11.280;2024-02-16T02:59:31;4.67;;;2.47;;
76210;SDS011;65003;49.518;11.280;2024-02-16T03:01:58;4.63;;;2.83;;
76210;SDS011;65003;49.518;11.280;2024-02-16T03:04:25;4.43;;;2.63;;
76210;SDS011;65003;49.518;11.280;2024-02-16T03:06:52;4.17;;;3.40;;
76210;SDS011;65003;49.518;11.280;2024-02-16T03:09:18;5.10;;;2.83;;
76210;SDS011;65003;49.518;11.280;2024-02-16T03:11:45;5.57;;;3.27;;
76210;SDS011;65003;49.518;11.280;2024-02-16T03:14:11;4.57;;;3.43;;
76210;SDS011;65003;49.518;11.280;2024-02-16T03:16:38;4.10;;;2.87;;
76210;SDS011;65003;49.518;11.280;2024-02-16T03:19:06;4.33;;;2.83;;
76210;SDS011;65003;49.518;11.280;2024-02-16T03:21:32;4.70;;;3.20;;
76210;SDS011;65003;49.518;11.280;2024-02-16T03:23:58;4.57;;;3.60;;
76210;SDS011;65003;49.518;11.280;2024-02-16T03:26:25;5.20;;;2.93;;
76210;SDS011;65003;49.518;11.280;2024-02-16T03:28:51;3.20;;;2.90;;
76210;SDS011;65003;49.518;11.280;2024-02-16T03:31:20;3.33;;;3.03;;
76210;SDS011;65003;49.518;11.280;2024-02-16T03:33:46;4.33;;;3.53;;
76210;SDS011;65003;49.518;11.280;2024-02-16T03:36:12;3.53;;;3.20;;
76210;SDS011;65003;49.518;11.280;2024-02-16T03:38:41;4.47;;;3.53;;
76210;SDS011;65003;49.518;11.280;2024-02-16T03:41:12;4.17;;;3.30;;
76210;SDS011;65003;49.518;11.280;2024-02-16T03:43:35;5.03;;;3.43;;
76210;SDS011;65003;49.518;11.280;2024-02-16T03:46:01;4.30;;;3.33;;
76210;SDS011;65003;49.518;11.280;2024-02-16T03:48:28;6.90;;;3.40;;
76210;SDS011;65003;49.518;11.280;2024-02-16T03:50:54;4.27;;;3.67;;
76210;SDS011;65003;49.518;11.280;2024-02-16T03:53:21;6.30;;;3.60;;
76210;SDS011;65003;49.518;11.280;2024-02-16T03:55:47;4.80;;;3.20;;
76210;SDS011;65003;49.518;11.280;2024-02-16T03:58:14;5.67;;;4.00;;
76210;SDS011;65003;49.518;11.280;2024-02-16T04:00:41;5.27;;;3.33;;
76210;SDS011;65003;49.518;11.280;2024-02-16T04:03:07;5.47;;;3.43;;
76210;SDS011;65003;49.518;11.280;2024-02-16T04:05:34;5.93;;;3.80;;
76210;SDS011;65003;49.518;11.280;2024-02-16T04:08:00;4.20;;;3.80;;
76210;SDS011;65003;49.518;11.280;2024-02-16T04:10:27;4.20;;;3.80;;
76210;SDS011;65003;49.518;11.280;2024-02-16T04:12:54;7.07;;;3.70;;
76210;SDS011;65003;49.518;11.280;2024-02-16T04:15:20;5.13;;;3.60;;
76210;SDS011;65003;49.518;11.280;2024-02-16T04:17:47;4.87;;;3.40;;
76210;SDS011;65003;49.518;11.280;2024-02-16T04:20:14;6.90;;;3.73;;
76210;SDS011;65003;49.518;11.280;2024-02-16T04:22:41;6.40;;;4.10;;
76210;SDS011;65003;49.518;11.280;2024-02-16T04:25:07;5.13;;;4.27;;
76210;SDS011;65003;49.518;11.280;2024-02-16T04:27:34;6.93;;;3.87;;
76210;SDS011;65003;49.518;11.280;2024-02-16T04:30:01;7.70;;;4.70;;
76210;SDS011;65003;49.518;11.280;2024-02-16T04:32:28;7.72;;;4.75;;
76210;SDS011;65003;49.518;11.280;2024-02-16T04:34:54;4.53;;;3.80;;
76210;SDS011;65003;49.518;11.280;2024-02-16T04:37:22;6.87;;;4.50;;
76210;SDS011;65003;49.518;11.280;2024-02-16T04:39:48;6.00;;;4.80;;
76210;SDS011;65003;49.518;11.280;2024-02-16T04:42:15;7.17;;;4.53;;
76210;SDS011;65003;49.518;11.280;2024-02-16T04:44:41;7.47;;;4.80;;
76210;SDS011;65003;49.518;11.280;2024-02-16T04:47:08;6.30;;;4.77;;
76210;SDS011;65003;49.518;11.280;2024-02-16T04:49:35;8.20;;;5.00;;
76210;SDS011;65003;49.518;11.280;2024-02-16T04:52:01;6.20;;;4.87;;
76210;SDS011;65003;49.518;11.280;2024-02-16T04:54:28;5.77;;;4.90;;
76210;SDS011;65003;49.518;11.280;2024-02-16T04:56:55;9.87;;;4.83;;
76210;SDS011;65003;49.518;11.280;2024-02-16T04:59:21;5.67;;;5.00;;
76210;SDS011;65003;49.518;11.280;2024-02-16T05:01:48;9.33;;;5.63;;
76210;SDS011;65003;49.518;11.280;2024-02-16T05:04:14;8.17;;;5.47;;
76210;SDS011;65003;49.518;11.280;2024-02-16T05:06:43;5.83;;;4.63;;
76210;SDS011;65003;49.518;11.280;2024-02-16T05:09:09;10.67;;;5.93;;
76210;SDS011;65003;49.518;11.280;2024-02-16T05:11:35;7.07;;;4.83;;
76210;SDS011;65003;49.518;11.280;2024-02-16T05:14:02;6.67;;;4.80;;
76210;SDS011;65003;49.518;11.280;2024-02-16T05:16:29;9.00;;;5.10;;
76210;SDS011;65003;49.518;11.280;2024-02-16T05:18:55;6.47;;;5.17;;
76210;SDS011;65003;49.518;11.280;2024-02-16T05:21:23;8.63;;;5.10;;
76210;SDS011;65003;49.518;11.280;2024-02-16T05:23:49;7.63;;;5.50;;
76210;SDS011;65003;49.518;11.280;2024-02-16T05:26:16;7.37;;;5.57;;
76210;SDS011;65003;49.518;11.280;2024-02-16T05:28:42;10.07;;;6.13;;
76210;SDS011;65003;49.518;11.280;2024-02-16T05:31:14;8.83;;;5.80;;
76210;SDS011;65003;49.518;11.280;2024-02-16T05:33:41;10.53;;;7.70;;
76210;SDS011;65003;49.518;11.280;2024-02-16T05:36:07;11.73;;;7.73;;
76210;SDS011;65003;49.518;11.280;2024-02-16T05:38:34;10.87;;;6.63;;
76210;SDS011;65003;49.518;11.280;2024-02-16T05:41:00;9.47;;;6.27;;
76210;SDS011;65003;49.518;11.280;2024-02-16T05:43:27;8.93;;;5.70;;
76210;SDS011;65003;49.518;11.280;2024-02-16T05:45:54;7.37;;;5.20;;
76210;SDS011;65003;49.518;11.280;2024-02-16T05:48:20;7.33;;;5.50;;
76210;SDS011;65003;49.518;11.280;2024-02-16T05:50:47;5.87;;;5.03;;
76210;SDS011;65003;49.518;11.280;2024-02-16T05:53:13;6.87;;;5.00;;
76210;SDS011;65003;49.518;11.280;2024-02-16T05:55:40;7.80;;;4.83;;
76210;SDS011;65003;49.518;11.280;2024-02-16T05:58:06;7.83;;;5.77;;
76210;SDS011;65003;49.518;11.280;2024-02-16T06:00:33;6.40;;;4.80;;
76210;SDS011;65003;49.518;11.280;2024-02-16T06:03:00;8.83;;;5.53;;
76210;SDS011;65003;49.518;11.280;2024-02-16T06:05:26;6.77;;;5.03;;
76210;SDS011;65003;49.518;11.280;2024-02-16T06:07:53;5.57;;;4.63;;
76210;SDS011;65003;49.518;11.280;2024-02-16T06:10:19;6.43;;;5.20;;
76210;SDS011;65003;49.518;11.280;2024-02-16T06:12:46;6.73;;;5.10;;
76210;SDS011;65003;49.518;11.280;2024-02-16T06:15:13;7.53;;;5.43;;
76210;SDS011;65003;49.518;11.280;2024-02-16T06:17:39;7.47;;;4.77;;
76210;SDS011;65003;49.518;11.280;2024-02-16T06:20:06;7.00;;;4.97;;
76210;SDS011;65003;49.518;11.280;2024-02-16T06:22:33;7.30;;;5.23;;
76210;SDS011;65003;49.518;11.280;2024-02-16T06:25:00;7.30;;;4.80;;
76210;SDS011;65003;49.518;11.280;2024-02-16T06:27:26;9.27;;;5.10;;
76210;SDS011;65003;49.518;11.280;2024-02-16T06:29:53;7.07;;;5.23;;
76210;SDS011;65003;49.518;11.280;2024-02-16T06:32:20;6.33;;;4.45;;
76210;SDS011;65003;49.518;11.280;2024-02-16T06:34:46;6.87;;;5.17;;
76210;SDS011;65003;49.518;11.280;2024-02-16T06:37:13;6.97;;;4.87;;
76210;SDS011;65003;49.518;11.280;2024-02-16T06:39:40;6.57;;;4.47;;
76210;SDS011;65003;49.518;11.280;2024-02-16T06:42:06;5.97;;;4.13;;
76210;SDS011;65003;49.518;11.280;2024-02-16T06:44:33;6.30;;;4.53;;
76210;SDS011;65003;49.518;11.280;2024-02-16T06:46:59;8.60;;;4.60;;
76210;SDS011;65003;49.518;11.280;2024-02-16T06:49:26;6.73;;;5.00;;
76210;SDS011;65003;49.518;11.280;2024-02-16T06:51:53;10.17;;;5.40;;
76210;SDS011;65003;49.518;11.280;2024-02-16T06:54:20;7.57;;;4.87;;
76210;SDS011;65003;49.518;11.280;2024-02-16T06:56:46;10.57;;;5.43;;
76210;SDS011;65003;49.518;11.280;2024-02-16T06:59:13;7.37;;;4.70;;
76210;SDS011;65003;49.518;11.280;2024-02-16T07:01:39;8.97;;;5.07;;
76210;SDS011;65003;49.518;11.280;2024-02-16T07:04:06;9.70;;;5.70;;
76210;SDS011;65003;49.518;11.280;2024-02-16T07:06:33;8.60;;;5.27;;
76210;SDS011;65003;49.518;11.280;2024-02-16T07:08:59;8.07;;;5.43;;
76210;SDS011;65003;49.518;11.280;2024-02-16T07:11:26;6.20;;;5.07;;
76210;SDS011;65003;49.518;11.280;2024-02-16T07:13:52;8.67;;;5.23;;
76210;SDS011;65003;49.518;11.280;2024-02-16T07:16:19;6.83;;;5.43;;
76210;SDS011;65003;49.518;11.280;2024-02-16T07:18:46;7.40;;;5.50;;
76210;SDS011;65003;49.518;11.280;2024-02-16T07:21:12;6.80;;;5.60;;
76210;SDS011;65003;49.518;11.280;2024-02-16T07:23:39;6.23;;;5.10;;
76210;SDS011;65003;49.518;11.280;2024-02-16T07:26:05;6.50;;;4.80;;
76210;SDS011;65003;49.518;11.280;2024-02-16T07:28:32;7.73;;;4.87;;
76210;SDS011;65003;49.518;11.280;2024-02-16T07:30:59;8.93;;;5.23;;
76210;SDS011;65003;49.518;11.280;2024-02-16T07:33:25;5.57;;;4.43;;
76210;SDS011;65003;49.518;11.280;2024-02-16T07:35:52;6.77;;;5.00;;
76210;SDS011;65003;49.518;11.280;2024-02-16T07:38:18;8.70;;;5.20;;
76210;SDS011;65003;49.518;11.280;2024-02-16T07:40:45;7.80;;;5.03;;
76210;SDS011;65003;49.518;11.280;2024-02-16T07:43:12;6.67;;;5.23;;
76210;SDS011;65003;49.518;11.280;2024-02-16T07:45:38;7.13;;;5.27;;
76210;SDS011;65003;49.518;11.280;2024-02-16T07:48:05;7.57;;;4.40;;
76210;SDS011;65003;49.518;11.280;2024-02-16T07:50:32;4.87;;;4.20;;
76210;SDS011;65003;49.518;11.280;2024-02-16T07:52:58;7.50;;;5.03;;
76210;SDS011;65003;49.518;11.280;2024-02-16T07:55:25;7.63;;;4.97;;
76210;SDS011;65003;49.518;11.280;2024-02-16T07:57:51;7.73;;;5.23;;
76210;SDS011;65003;49.518;11.280;2024-02-16T08:00:19;9.53;;;5.40;;
76210;SDS011;65003;49.518;11.280;2024-02-16T08:02:46;7.40;;;5.57;;
76210;SDS011;65003;49.518;11.280;2024-02-16T08:05:12;6.63;;;4.63;;
76210;SDS011;65003;49.518;11.280;2024-02-16T08:07:40;5.30;;;4.77;;
76210;SDS011;65003;49.518;11.280;2024-02-16T08:10:09;11.13;;;6.77;;
76210;SDS011;65003;49.518;11.280;2024-02-16T08:12:35;9.73;;;6.07;;
76210;SDS011;65003;49.518;11.280;2024-02-16T08:15:03;7.27;;;4.93;;
76210;SDS011;65003;49.518;11.280;2024-02-16T08:17:30;8.20;;;5.20;;
76210;SDS011;65003;49.518;11.280;2024-02-16T08:19:56;7.30;;;5.87;;
76210;SDS011;65003;49.518;11.280;2024-02-16T08:22:23;8.97;;;5.33;;
76210;SDS011;65003;49.518;11.280;2024-02-16T08:24:49;4.97;;;3.93;;
76210;SDS011;65003;49.518;11.280;2024-02-16T08:27:16;7.63;;;5.07;;
76210;SDS011;65003;49.518;11.280;2024-02-16T08:29:43;8.73;;;4.77;;
76210;SDS011;65003;49.518;11.280;2024-02-16T08:32:09;5.43;;;4.50;;
76210;SDS011;65003;49.518;11.280;2024-02-16T08:34:36;5.57;;;4.70;;
76210;SDS011;65003;49.518;11.280;2024-02-16T08:37:04;4.80;;;4.30;;
76210;SDS011;65003;49.518;11.280;2024-02-16T08:39:30;7.60;;;4.53;;
76210;SDS011;65003;49.518;11.280;2024-02-16T08:41:57;5.90;;;4.33;;
76210;SDS011;65003;49.518;11.280;2024-02-16T08:44:23;5.60;;;4.00;;
76210;SDS011;65003;49.518;11.280;2024-02-16T08:46:49;5.47;;;4.03;;
76210;SDS011;65003;49.518;11.280;2024-02-16T08:49:16;5.93;;;4.20;;
76210;SDS011;65003;49.518;11.280;2024-02-16T08:51:43;8.20;;;4.43;;
76210;SDS011;65003;49.518;11.280;2024-02-16T08:54:09;5.33;;;4.10;;
76210;SDS011;65003;49.518;11.280;2024-02-16T08:56:36;4.80;;;3.77;;
76210;SDS011;65003;49.518;11.280;2024-02-16T08:59:02;4.73;;;4.10;;
76210;SDS011;65003;49.518;11.280;2024-02-16T09:01:32;6.40;;;5.00;;
76210;SDS011;65003;49.518;11.280;2024-02-16T09:03:58;7.20;;;5.50;;
76210;SDS011;65003;49.518;11.280;2024-02-16T09:06:25;7.33;;;5.30;;
76210;SDS011;65003;49.518;11.280;2024-02-16T09:08:52;6.33;;;4.67;;
76210;SDS011;65003;49.518;11.280;2024-02-16T09:11:18;6.50;;;4.70;;
76210;SDS011;65003;49.518;11.280;2024-02-16T09:13:45;6.67;;;4.80;;
76210;SDS011;65003;49.518;11.280;2024-02-16T09:16:12;5.60;;;4.73;;
76210;SDS011;65003;49.518;11.280;2024-02-16T09:18:39;6.07;;;5.47;;
76210;SDS011;65003;49.518;11.280;2024-02-16T09:21:06;5.57;;;5.00;;
76210;SDS011;65003;49.518;11.280;2024-02-16T09:23:32;6.00;;;5.40;;
76210;SDS011;65003;49.518;11.280;2024-02-16T09:25:58;5.40;;;4.67;;
76210;SDS011;65003;49.518;11.280;2024-02-16T09:28:25;6.33;;;5.07;;
76210;SDS011;65003;49.518;11.280;2024-02-16T09:30:52;6.33;;;4.57;;
76210;SDS011;65003;49.518;11.280;2024-02-16T09:33:18;6.57;;;5.67;;
76210;SDS011;65003;49.518;11.280;2024-02-16T09:35:45;6.27;;;5.50;;
76210;SDS011;65003;49.518;11.280;2024-02-16T09:38:11;6.00;;;5.20;;
76210;SDS011;65003;49.518;11.280;2024-02-16T09:40:38;14.70;;;5.33;;
76210;SDS011;65003;49.518;11.280;2024-02-16T09:43:05;6.23;;;5.27;;
76210;SDS011;65003;49.518;11.280;2024-02-16T09:45:32;7.93;;;5.93;;
76210;SDS011;65003;49.518;11.280;2024-02-16T09:47:58;5.97;;;5.47;;
76210;SDS011;65003;49.518;11.280;2024-02-16T09:50:24;6.47;;;5.27;;
76210;SDS011;65003;49.518;11.280;2024-02-16T09:52:51;5.80;;;5.20;;
76210;SDS011;65003;49.518;11.280;2024-02-16T09:55:17;5.63;;;5.03;;
76210;SDS011;65003;49.518;11.280;2024-02-16T09:57:44;8.20;;;5.23;;
76210;SDS011;65003;49.518;11.280;2024-02-16T10:00:11;7.47;;;5.70;;
76210;SDS011;65003;49.518;11.280;2024-02-16T10:02:40;5.70;;;5.20;;
76210;SDS011;65003;49.518;11.280;2024-02-16T10:05:15;7.83;;;5.50;;
76210;SDS011;65003;49.518;11.280;2024-02-16T10:07:41;8.80;;;4.77;;
76210;SDS011;65003;49.518;11.280;2024-02-16T10:12:45;5.67;;;5.10;;
76210;SDS011;65003;49.518;11.280;2024-02-16T10:15:11;7.20;;;4.53;;
76210;SDS011;65003;49.518;11.280;2024-02-16T10:17:38;5.80;;;4.70;;
76210;SDS011;65003;49.518;11.280;2024-02-16T10:20:05;5.83;;;5.13;;
76210;SDS011;65003;49.518;11.280;2024-02-16T10:22:32;6.37;;;4.93;;
76210;SDS011;65003;49.518;11.280;2024-02-16T10:27:33;7.50;;;5.10;;
76210;SDS011;65003;49.518;11.280;2024-02-16T10:30:00;6.20;;;4.67;;
76210;SDS011;65003;49.518;11.280;2024-02-16T10:32:26;6.47;;;4.63;;
76210;SDS011;65003;49.518;11.280;2024-02-16T10:34:53;6.87;;;4.73;;
76210;SDS011;65003;49.518;11.280;2024-02-16T10:37:20;4.90;;;4.20;;
76210;SDS011;65003;49.518;11.280;2024-02-16T10:39:46;6.13;;;4.30;;
76210;SDS011;65003;49.518;11.280;2024-02-16T10:42:14;6.57;;;5.07;;
76210;SDS011;65003;49.518;11.280;2024-02-16T10:44:39;5.17;;;4.63;;
76210;SDS011;65003;49.518;11.280;2024-02-16T10:47:06;8.13;;;4.63;;
76210;SDS011;65003;49.518;11.280;2024-02-16T10:49:33;9.07;;;4.60;;
76210;SDS011;65003;49.518;11.280;2024-02-16T10:51:59;5.73;;;3.83;;
76210;SDS011;65003;49.518;11.280;2024-02-16T10:54:27;5.60;;;4.50;;
76210;SDS011;65003;49.518;11.280;2024-02-16T10:56:53;5.77;;;4.33;;
76210;SDS011;65003;49.518;11.280;2024-02-16T10:59:20;12.17;;;4.33;;
76210;SDS011;65003;49.518;11.280;2024-02-16T11:01:46;5.17;;;4.53;;
76210;SDS011;65003;49.518;11.280;2024-02-16T11:04:14;5.23;;;4.57;;
76210;SDS011;65003;49.518;11.280;2024-02-16T11:06:45;5.70;;;4.23;;
76210;SDS011;65003;49.518;11.280;2024-02-16T11:09:11;5.63;;;4.63;;
76210;SDS011;65003;49.518;11.280;2024-02-16T11:11:38;7.03;;;4.43;;
76210;SDS011;65003;49.518;11.280;2024-02-16T11:14:13;4.23;;;3.83;;
76210;SDS011;65003;49.518;11.280;2024-02-16T11:16:31;5.20;;;4.00;;
76210;SDS011;65003;49.518;11.280;2024-02-16T11:18:58;4.07;;;3.67;;
76210;SDS011;65003;49.518;11.280;2024-02-16T11:21:25;6.20;;;4.40;;
76210;SDS011;65003;49.518;11.280;2024-02-16T11:23:51;4.57;;;4.07;;
76210;SDS011;65003;49.518;11.280;2024-02-16T11:26:18;4.97;;;3.90;;
76210;SDS011;65003;49.518;11.280;2024-02-16T11:28:44;7.10;;;4.33;;
76210;SDS011;65003;49.518;11.280;2024-02-16T11:31:11;6.27;;;3.93;;
76210;SDS011;65003;49.518;11.280;2024-02-16T11:33:42;5.00;;;4.43;;
76210;SDS011;65003;49.518;11.280;2024-02-16T11:36:04;8.17;;;5.30;;
76210;SDS011;65003;49.518;11.280;2024-02-16T11:38:31;8.73;;;4.60;;
76210;SDS011;65003;49.518;11.280;2024-02-16T11:41:00;5.13;;;4.10;;
76210;SDS011;65003;49.518;11.280;2024-02-16T11:43:27;5.53;;;4.37;;
76210;SDS011;65003;49.518;11.280;2024-02-16T11:45:53;7.00;;;4.43;;
76210;SDS011;65003;49.518;11.280;2024-02-16T11:48:24;6.03;;;4.27;;
76210;SDS011;65003;49.518;11.280;2024-02-16T11:50:58;6.53;;;4.70;;
76210;SDS011;65003;49.518;11.280;2024-02-16T11:53:17;4.80;;;4.40;;
76210;SDS011;65003;49.518;11.280;2024-02-16T11:55:46;5.90;;;4.50;;
76210;SDS011;65003;49.518;11.280;2024-02-16T11:58:12;7.20;;;5.00;;
76210;SDS011;65003;49.518;11.280;2024-02-16T12:00:39;5.50;;;4.60;;
76210;SDS011;65003;49.518;11.280;2024-02-16T12:03:05;9.07;;;4.20;;
76210;SDS011;65003;49.518;11.280;2024-02-16T12:05:32;5.47;;;4.50;;
76210;SDS011;65003;49.518;11.280;2024-02-16T12:07:58;5.40;;;4.40;;
76210;SDS011;65003;49.518;11.280;2024-02-16T12:10:25;9.03;;;6.17;;
76210;SDS011;65003;49.518;11.280;2024-02-16T12:12:52;5.57;;;4.10;;
76210;SDS011;65003;49.518;11.280;2024-02-16T12:15:18;7.13;;;4.13;;
76210;SDS011;65003;49.518;11.280;2024-02-16T12:17:45;6.17;;;4.20;;
76210;SDS011;65003;49.518;11.280;2024-02-16T12:20:12;6.80;;;4.43;;
76210;SDS011;65003;49.518;11.280;2024-02-16T12:22:39;7.70;;;4.23;;
76210;SDS011;65003;49.518;11.280;2024-02-16T12:25:05;5.60;;;4.20;;
76210;SDS011;65003;49.518;11.280;2024-02-16T12:27:32;6.93;;;4.07;;
76210;SDS011;65003;49.518;11.280;2024-02-16T12:29:59;4.67;;;4.17;;
76210;SDS011;65003;49.518;11.280;2024-02-16T12:32:25;5.53;;;3.93;;
76210;SDS011;65003;49.518;11.280;2024-02-16T12:34:52;4.83;;;3.60;;
76210;SDS011;65003;49.518;11.280;2024-02-16T12:37:18;4.20;;;3.40;;
76210;SDS011;65003;49.518;11.280;2024-02-16T12:39:45;4.73;;;3.27;;
76210;SDS011;65003;49.518;11.280;2024-02-16T12:42:12;4.90;;;3.97;;
76210;SDS011;65003;49.518;11.280;2024-02-16T12:44:39;4.77;;;3.37;;
76210;SDS011;65003;49.518;11.280;2024-02-16T12:47:06;5.80;;;3.47;;
76210;SDS011;65003;49.518;11.280;2024-02-16T12:49:32;3.47;;;2.87;;
76210;SDS011;65003;49.518;11.280;2024-02-16T12:51:59;4.10;;;3.50;;
76210;SDS011;65003;49.518;11.280;2024-02-16T12:54:25;4.63;;;2.80;;
76210;SDS011;65003;49.518;11.280;2024-02-16T12:56:52;4.13;;;3.70;;
76210;SDS011;65003;49.518;11.280;2024-02-16T12:59:19;3.60;;;3.17;;
76210;SDS011;65003;49.518;11.280;2024-02-16T13:01:45;5.40;;;3.30;;
76210;SDS011;65003;49.518;11.280;2024-02-16T13:04:12;4.83;;;3.03;;
76210;SDS011;65003;49.518;11.280;2024-02-16T13:06:38;3.77;;;2.80;;
76210;SDS011;65003;49.518;11.280;2024-02-16T13:09:05;5.97;;;3.07;;
76210;SDS011;65003;49.518;11.280;2024-02-16T13:11:31;5.73;;;3.33;;
76210;SDS011;65003;49.518;11.280;2024-02-16T13:13:58;4.17;;;2.97;;
76210;SDS011;65003;49.518;11.280;2024-02-16T13:16:25;5.83;;;3.17;;
76210;SDS011;65003;49.518;11.280;2024-02-16T13:18:51;4.97;;;3.07;;
76210;SDS011;65003;49.518;11.280;2024-02-16T13:21:18;4.37;;;2.80;;
76210;SDS011;65003;49.518;11.280;2024-02-16T13:23:44;3.63;;;3.00;;
76210;SDS011;65003;49.518;11.280;2024-02-16T13:26:11;3.13;;;2.60;;
76210;SDS011;65003;49.518;11.280;2024-02-16T13:28:38;5.10;;;3.03;;
76210;SDS011;65003;49.518;11.280;2024-02-16T13:31:04;4.97;;;3.00;;
76210;SDS011;65003;49.518;11.280;2024-02-16T13:33:31;4.17;;;2.70;;
76210;SDS011;65003;49.518;11.280;2024-02-16T13:35:57;6.13;;;3.00;;
76210;SDS011;65003;49.518;11.280;2024-02-16T13:38:24;4.37;;;2.80;;
76210;SDS011;65003;49.518;11.280;2024-02-16T13:40:51;4.80;;;3.20;;
76210;SDS011;65003;49.518;11.280;2024-02-16T13:43:17;4.13;;;2.90;;
76210;SDS011;65003;49.518;11.280;2024-02-16T13:45:47;4.53;;;2.77;;
76210;SDS011;65003;49.518;11.280;2024-02-16T13:48:13;4.27;;;3.23;;
76210;SDS011;65003;49.518;11.280;2024-02-16T13:50:40;4.13;;;2.83;;
76210;SDS011;65003;49.518;11.280;2024-02-16T13:53:06;4.20;;;3.13;;
76210;SDS011;65003;49.518;11.280;2024-02-16T13:55:33;6.90;;;3.30;;
76210;SDS011;65003;49.518;11.280;2024-02-16T13:57:59;3.70;;;3.03;;
76210;SDS011;65003;49.518;11.280;2024-02-16T14:00:26;5.23;;;3.63;;
76210;SDS011;65003;49.518;11.280;2024-02-16T14:02:52;4.77;;;3.07;;
76210;SDS011;65003;49.518;11.280;2024-02-16T14:05:20;3.90;;;3.00;;
76210;SDS011;65003;49.518;11.280;2024-02-16T14:07:47;5.60;;;3.00;;
76210;SDS011;65003;49.518;11.280;2024-02-16T14:10:13;6.00;;;3.00;;
76210;SDS011;65003;49.518;11.280;2024-02-16T14:12:40;3.17;;;2.73;;
76210;SDS011;65003;49.518;11.280;2024-02-16T14:15:07;3.67;;;2.83;;
76210;SDS011;65003;49.518;11.280;2024-02-16T14:17:34;5.50;;;2.83;;
76210;SDS011;65003;49.518;11.280;2024-02-16T14:20:00;3.50;;;2.97;;
76210;SDS011;65003;49.518;11.280;2024-02-16T14:22:27;4.03;;;2.73;;
76210;SDS011;65003;49.518;11.280;2024-02-16T14:24:53;4.17;;;2.90;;
76210;SDS011;65003;49.518;11.280;2024-02-16T14:27:20;6.17;;;3.87;;
76210;SDS011;65003;49.518;11.280;2024-02-16T14:29:47;5.83;;;3.70;;
76210;SDS011;65003;49.518;11.280;2024-02-16T14:32:13;5.10;;;3.87;;
76210;SDS011;65003;49.518;11.280;2024-02-16T14:34:40;4.57;;;3.37;;